Flight Track Log - Related Links

Times and Time Zones

All times are in EDT time to prevent confusion due to time zone crossing. See the N1250V flight status page for this flight to view local times or setup timezone preferences in your user account.

Time Position Orientation Groundspeed Altitude Reporting Facility
EDT Latitude Longitude Course Direction KTS MPH feet Rate Location/Type
Sat 17:33:10 39.1167 -84.4000 67° East 162 186 1,100  Level Cincinnati TRACON
Sat 17:34:16 39.1333 -84.3500 67° East 160 184 3,200 1,857 Climbing Cincinnati TRACON
Sat 17:35:16 39.1000 -84.3167 142° Southeast 205 236 5,000 2,050 Climbing Cincinnati TRACON
Sat 17:36:16 39.0333 -84.3333 191° South 207 238 7,300 2,033 Climbing Cincinnati TRACON
Sat 17:37:17 38.9839 -84.3403 186° South 209 241 9,100 2,000 Climbing Indianapolis Center
Sat 17:38:19 38.9222 -84.3467 185° South 218 251 11,400 1,839 Climbing Indianapolis Center
Sat 17:39:21 38.8614 -84.3553 186° South 218 251 12,900 1,073 Climbing Indianapolis Center
Sat 17:40:22 38.7875 -84.3658 186° South 263 303 13,600 1,122 Climbing Indianapolis Center
Sat 17:41:24 38.7108 -84.3756 186° South 273 314 15,200 1,645 Climbing Indianapolis Center
Sat 17:42:26 38.6269 -84.3783 181° South 264 304 17,000 1,561 Climbing Indianapolis Center
Sat 17:43:27 38.5569 -84.3628 170° South 256 295 18,400 1,366 Climbing Indianapolis Center
Sat 17:44:29 38.4881 -84.3511 172° South 248 285 19,800 1,258 Climbing Indianapolis Center
Sat 17:45:31 38.4167 -84.3392 173° South 255 293 21,000 1,122 Climbing Indianapolis Center
Sat 17:46:32 38.3456 -84.3258 172° South 257 296 22,100 1,122 Climbing Indianapolis Center
Sat 17:47:34 38.2736 -84.3117 171° South 260 299 23,300 1,210 Climbing Indianapolis Center
Sat 17:48:36 38.1886 -84.2983 173° South 262 302 24,600 1,065 Climbing Indianapolis Center
Sat 17:49:38 38.1164 -84.2847 172° South 262 302 25,500 976 Climbing Indianapolis Center
Sat 17:50:39 38.0447 -84.2708 171° South 261 300 26,600 976 Climbing Indianapolis Center
Sat 17:51:41 37.9714 -84.2581 172° South 264 304 27,500 780 Climbing Indianapolis Center
Sat 17:52:42 37.8994 -84.2456 172° South 259 298 28,200 780 Climbing Indianapolis Center
Sat 17:53:44 37.8319 -84.2322 171° South 247 284 29,100 726 Climbing Indianapolis Center
Sat 17:54:46 37.7569 -84.2203 173° South 234 269 29,700 488 Climbing Indianapolis Center
Sat 17:55:47 37.6933 -84.2081 171° South 232 267 30,100 439 Climbing Indianapolis Center
Sat 17:56:49 37.6306 -84.1964 172° South 228 262 30,600 439 Climbing Indianapolis Center
Sat 17:57:50 37.5686 -84.1856 172° South 224 258 31,000 390 Climbing Indianapolis Center
Sat 17:58:52 37.5086 -84.1742 171° South 220 253 31,400 387 Climbing Indianapolis Center
Sat 17:59:54 37.4472 -84.1628 172° South 222 255 31,800 439 Climbing Indianapolis Center
Sat 18:00:55 37.3881 -84.1528 172° South 216 249 32,300 488 Climbing Indianapolis Center
Sat 18:01:57 37.3183 -84.1403 172° South 217 250 32,800 439 Climbing Indianapolis Center
Sat 18:02:58 37.2606 -84.1300 172° South 211 243 33,200 390 Climbing Indianapolis Center
Sat 18:04:00 37.2022 -84.1206 173° South 210 242 33,600 390 Climbing Indianapolis Center
Sat 18:05:01 37.1444 -84.1097 171° South 210 242 34,000 341 Climbing Indianapolis Center
Sat 18:06:03 37.0847 -84.0994 172° South 216 249 34,300 244 Climbing Indianapolis Center
Sat 18:07:04 37.0217 -84.0892 173° South 226 260 34,500 244 Climbing Indianapolis Center
Sat 18:08:06 36.9575 -84.0769 171° South 232 267 34,800 244 Climbing Indianapolis Center
Sat 18:09:07 36.8811 -84.0639 172° South 236 272 35,000 98 Climbing Indianapolis Center
Sat 18:10:09 36.8122 -84.0519 172° South 247 284 35,000  Level Indianapolis Center
Sat 18:11:11 36.7406 -84.0400 172° South 255 293 35,000  Level Indianapolis Center
Sat 18:12:12 36.6681 -84.0269 172° South 262 302 35,000  Level Indianapolis Center
Sat 18:13:14 36.5933 -84.0144 172° South 267 307 35,000  Level Indianapolis Center
Sat 18:14:15 36.5169 -84.0017 172° South 275 316 35,000  Level Indianapolis Center
Sat 18:15:17 36.4403 -83.9869 171° South 278 320 35,000  Level Indianapolis Center
Sat 18:16:18 36.3628 -83.9739 172° South 281 323 35,000  Level Indianapolis Center
Sat 18:17:19 36.2686 -83.9578 172° South 284 327 35,000  Level Indianapolis Center
Sat 18:18:21 36.1914 -83.9433 171° South 281 323 35,000  Level Indianapolis Center
Sat 18:19:22 36.1136 -83.9308 173° South 281 323 35,000  Level Indianapolis Center
Sat 18:20:04 36.0667 -83.9231 172° South 279 321 35,000  Level Atlanta Center
Sat 18:21:04 35.9936 -83.9103 172° South 274 315 35,000  Level Atlanta Center
Sat 18:22:04 35.9183 -83.8978 172° South 274 315 35,000  Level Atlanta Center
Sat 18:23:04 35.8475 -83.9106 188° South 267 307 35,000  Level Atlanta Center
Sat 18:24:04 35.7786 -83.9261 190° South 262 302 35,000  Level Atlanta Center
Sat 18:25:04 35.7078 -83.9442 192° South 262 302 35,000  Level Atlanta Center
Sat 18:26:04 35.6369 -83.9622 192° South 262 302 35,000  Level Atlanta Center
Sat 18:27:04 35.5639 -83.9775 190° South 262 302 35,000  Level Atlanta Center
Sat 18:28:04 35.4889 -83.9953 191° South 262 302 35,000  Level Atlanta Center
Sat 18:29:04 35.4158 -84.0158 193° South 262 302 35,000  Level Atlanta Center
Sat 18:30:04 35.3344 -84.0336 190° South 267 307 35,000  Level Atlanta Center
Sat 18:31:04 35.2592 -84.0539 192° South 272 313 35,000  Level Atlanta Center
Sat 18:32:04 35.1819 -84.0719 191° South 277 319 35,000  Level Atlanta Center
Sat 18:33:04 35.1069 -84.0894 191° South 277 319 35,000  Level Atlanta Center
Sat 18:34:04 35.0278 -84.1097 192° South 277 319 35,000  Level Atlanta Center
Sat 18:35:04 34.9547 -84.1275 191° South 277 319 35,000  Level Atlanta Center
Sat 18:36:04 34.8753 -84.1450 190° South 282 325 35,000  Level Atlanta Center
Sat 18:37:04 34.8003 -84.1628 191° South 282 325 35,000  Level Atlanta Center
Sat 18:38:04 34.7208 -84.1828 192° South 282 325 35,000  Level Atlanta Center
Sat 18:39:04 34.6561 -84.1953 189° South 275 316 35,000  Level Atlanta Center
Sat 18:40:04 34.5706 -84.2128 190° South 275 316 35,000  Level Atlanta Center
Sat 18:41:04 34.4933 -84.2353 194° South 280 322 35,000  Level Atlanta Center
Sat 18:42:04 34.4161 -84.2528 191° South 280 322 35,000  Level Atlanta Center
Sat 18:43:04 34.3367 -84.2703 190° South 286 329 35,000  Level Atlanta Center
Sat 18:44:04 34.2614 -84.2900 192° South 286 329 35,000  Level Atlanta Center
Sat 18:45:04 34.1800 -84.3025 187° South 293 337 35,000  Level Atlanta Center
Sat 18:46:04 34.0944 -84.2847 170° South 293 337 35,000  Level Atlanta Center
Sat 18:47:04 34.0133 -84.2594 166° South 298 343 35,000  Level Atlanta Center
Sat 18:48:04 33.9278 -84.2367 168° South 303 349 35,000  Level Atlanta Center
Sat 18:49:04 33.8483 -84.2139 167° South 309 356 35,000  Level Atlanta Center
Sat 18:50:04 33.7711 -84.1889 165° South 309 356 35,000  Level Atlanta Center
Sat 18:51:04 33.6794 -84.1636 167° South 315 362 35,000  Level Atlanta Center
Sat 18:52:04 33.5958 -84.1436 169° South 315 362 35,000  Level Atlanta Center
Sat 18:53:04 33.5103 -84.1211 168° South 315 362 35,000  Level Atlanta Center
Sat 18:54:04 33.4269 -84.0986 167° South 315 362 35,000  Level Atlanta Center
Sat 18:55:04 33.3433 -84.0761 167° South 315 362 35,000  Level Atlanta Center
Sat 18:56:04 33.2578 -84.0511 166° South 315 362 35,000  Level Atlanta Center
Sat 18:57:04 33.1744 -84.0314 169° South 315 362 35,000  Level Atlanta Center
Sat 18:58:04 33.0886 -84.0092 168° South 315 362 35,000  Level Atlanta Center
Sat 18:59:04 33.0072 -83.9844 166° South 315 362 35,000  Level Atlanta Center
Sat 19:00:04 32.9217 -83.9647 169° South 315 362 35,000  Level Atlanta Center
Sat 19:01:04 32.8361 -83.9350 164° South 315 362 35,000  Level Atlanta Center
Sat 19:02:04 32.7506 -83.9128 168° South 315 362 35,000  Level Atlanta Center
Sat 19:03:04 32.6628 -83.8933 169° South 315 362 35,000  Level Atlanta Center
Sat 19:04:04 32.5772 -83.8689 166° South 315 362 35,000  Level Atlanta Center
Sat 19:05:04 32.4936 -83.8442 166° South 315 362 35,000  Level Atlanta Center
Sat 19:06:04 32.4081 -83.8247 169° South 315 362 35,000  Level Atlanta Center
Sat 19:07:04 32.3203 -83.8003 167° South 315 362 35,000  Level Atlanta Center
Sat 19:08:54 32.1678 -83.7589 167° South 298 343 35,000  Level Jacksonville Center
Sat 19:09:54 32.0822 -83.7336 166° South 298 343 35,000  Level Jacksonville Center
Sat 19:10:54 31.9969 -83.7133 169° South 308 354 35,000  Level Jacksonville Center
Sat 19:11:54 31.9092 -83.6953 170° South 313 360 35,000  Level Jacksonville Center
Sat 19:12:54 31.8194 -83.6897 177° South 313 360 35,000  Level Jacksonville Center
Sat 19:13:54 31.7339 -83.6792 174° South 313 360 35,000  Level Jacksonville Center
Sat 19:14:54 31.6442 -83.6736 177° South 313 360 35,000  Level Jacksonville Center
Sat 19:15:54 31.5503 -83.6606 173° South 326 375 35,000  Level Jacksonville Center
Sat 19:16:54 31.4753 -83.6575 178° South 326 375 35,000  Level Jacksonville Center
Sat 19:17:54 31.3856 -83.6469 174° South 326 375 35,000  Level Jacksonville Center
Sat 19:18:54 31.2958 -83.6389 176° South 326 375 35,000  Level Jacksonville Center
Sat 19:19:54 31.2081 -83.6308 176° South 326 375 35,000  Level Jacksonville Center
Sat 19:20:54 31.1206 -83.6231 176° South 326 375 35,000  Level Jacksonville Center
Sat 19:21:54 31.0286 -83.6150 176° South 331 381 35,000  Level Jacksonville Center
Sat 19:22:54 30.9369 -83.6047 175° South 331 381 35,000  Level Jacksonville Center
Sat 19:23:54 30.8492 -83.5967 175° South 331 381 35,000  Level Jacksonville Center
Sat 19:24:54 30.7594 -83.5889 176° South 331 381 35,000  Level Jacksonville Center
Sat 19:25:54 30.6697 -83.5808 176° South 331 381 35,000  Level Jacksonville Center
Sat 19:26:54 30.5800 -83.5731 176° South 331 381 35,000  Level Jacksonville Center
Sat 19:27:54 30.4861 -83.5650 176° South 320 368 35,000  Level Jacksonville Center
Sat 19:28:54 30.4006 -83.5550 174° South 320 368 35,000  Level Jacksonville Center
Sat 19:29:54 30.3128 -83.5494 177° South 320 368 35,000  Level Jacksonville Center
Sat 19:30:54 30.2272 -83.5392 174° South 310 357 35,000  Level Jacksonville Center
Sat 19:31:54 30.1458 -83.5339 177° South 310 357 35,000  Level Jacksonville Center
Sat 19:32:54 30.0625 -83.5239 174° South 310 357 35,000  Level Jacksonville Center
Sat 19:33:54 29.9769 -83.5183 177° South 310 357 35,000  Level Jacksonville Center
Sat 19:34:54 29.8892 -83.5131 177° South 310 357 35,000  Level Jacksonville Center
Sat 19:35:54 29.7994 -83.5028 174° South 315 362 35,000  Level Jacksonville Center
Sat 19:36:54 29.7078 -83.4953 176° South 320 368 35,000  Level Jacksonville Center
Sat 19:37:54 29.6139 -83.4850 175° South 332 382 35,000  Level Jacksonville Center
Sat 19:38:54 29.5197 -83.4797 177° South 337 388 35,000  Level Jacksonville Center
Sat 19:39:54 29.4281 -83.4672 173° South 337 388 35,000  Level Jacksonville Center
Sat 19:40:54 29.3319 -83.4594 176° South 343 395 35,000  Level Jacksonville Center
Sat 19:41:54 29.2381 -83.4494 175° South 348 400 35,000  Level Jacksonville Center
Sat 19:42:54 29.1422 -83.4417 176° South 348 400 35,000  Level Jacksonville Center
Sat 19:43:54 29.0503 -83.4317 175° South 348 400 35,000  Level Jacksonville Center
Sat 19:44:54 28.9544 -83.4264 177° South 348 400 35,000  Level Jacksonville Center
Sat 19:45:54 28.8606 -83.4164 175° South 348 400 35,000  Level Jacksonville Center
Sat 19:46:54 28.7644 -83.4064 175° South 348 400 35,000  Level Jacksonville Center
Sat 19:47:54 28.6706 -83.3967 175° South 348 400 35,000  Level Jacksonville Center
Sat 19:50:24 28.4467 -83.3786 176° South 344 396 35,000 -486 Level Miami Center
Sat 19:51:24 28.3494 -83.3564 169° South 352 405 33,300 -1,800 Descending Miami Center
Sat 19:52:24 28.2472 -83.3128 159° South 368 423 31,400 -1,600 Descending Miami Center
Sat 19:53:24 28.1428 -83.2739 162° South 385 443 30,100 -700 Descending Miami Center
Sat 19:54:24 28.0483 -83.2356 160° South 379 436 30,000 -100 Descending Miami Center
Sat 19:55:24 27.9561 -83.2000 161° South 367 422 29,900 -500 Descending Miami Center
Sat 19:56:24 27.8642 -83.1594 159° South 362 417 29,000 -1,000 Descending Miami Center
Sat 19:57:24 27.7658 -83.1189 160° South 362 417 27,900 -1,050 Descending Miami Center
Sat 19:58:24 27.6675 -83.0783 160° South 368 423 26,900 -1,000 Descending Miami Center
Sat 19:59:24 27.5692 -83.0381 160° South 368 423 25,900 -1,100 Descending Miami Center
Sat 20:00:24 27.4728 -82.9978 160° South 368 423 24,700 -1,550 Descending Miami Center
Sat 20:01:24 27.3764 -82.9575 160° South 374 430 22,800 -1,700 Descending Miami Center
Sat 20:02:24 27.2903 -82.9203 159° South 354 407 21,300 -1,450 Descending Miami Center
Sat 20:03:24 27.2111 -82.8672 149° Southeast 336 387 19,900 -1,350 Descending Miami Center
Sat 20:04:24 27.1386 -82.8028 142° Southeast 326 375 18,600 -1,200 Descending Miami Center
Sat 20:05:24 27.0642 -82.7383 142° Southeast 332 382 17,500 -1,250 Descending Miami Center
Sat 20:06:24 26.9914 -82.6811 145° Southeast 332 382 16,100 -1,350 Descending Miami Center
Sat 20:07:24 26.9228 -82.6194 141° Southeast 321 369 14,800 -1,350 Descending Miami Center
Sat 20:08:24 26.8522 -82.5600 143° Southeast 321 369 13,400 -1,400 Descending Miami Center
Sat 20:09:24 26.7814 -82.5008 143° Southeast 321 369 12,000 -1,300 Descending Miami Center
Sat 20:10:24 26.7189 -82.4444 141° Southeast 303 349 10,800 -1,000 Descending Miami Center
Sat 20:11:24 26.6564 -82.3903 142° Southeast 292 336 10,000 -400 Descending Miami Center
Sat 20:12:24 26.5914 -82.3408 146° Southeast 283 326 10,000  Level Miami Center
Sat 20:13:24 26.5261 -82.2961 148° Southeast 277 319 10,000 -550 Level Miami Center
Sat 20:14:24 26.4683 -82.2239 132° Southeast 277 319 8,900 -1,200 Descending Miami Center
Sat 20:15:24 26.4228 -82.1567 127° Southeast 277 319 7,600 -1,250 Descending Miami Center
Sat 20:16:24 26.3772 -82.0922 128° Southeast 271 312 6,400 -1,200 Descending Miami Center
Sat 20:18:00 26.2980 -81.9804 152° Southeast  Level Estimated
Sat 20:25:00 26.1524 -81.7756 66° East  Level Estimated
Sat 20:26:00 26.1524 -81.7756 66° East  Level Estimated
Sat 20:27:00 26.1524 -81.7756 66° East  Level Estimated
Sat 20:28:00 26.1524 -81.7756 66° East  Level Estimated
Sat 20:29:00 26.1524 -81.7756 66° East  Level Estimated
Sat 20:30:00 26.1524 -81.7756 66° East  Level Estimated
Sat 20:31:00 26.1524 -81.7756 66° East  Level Estimated
Sat 20:32:00 26.1524 -81.7756 66° East  Level Estimated

Login

Don't have an account? Register now (free) for customized features, flight alerts, and more!